Double Springs, Alabama
Current Conditions -  °F | °C
As of 5:56 PM on Saturday 25 Oct 2014 (Local Time) from K1M4 Reporting Station
Clear Clear  
Wind Chill: 72°   Ceiling: Unl
Heat Index: 72°   Visibility: 10mi
Dew Point: 62°   Wind: 3mph
Humidity: 70%   Direction: 260°W
Pressure: 30.08"   Gusts: NA
Location:  34.15°N, 87.4°W
Report Text: K1M4 252256Z AUTO 26003KT 10SM CLR 22/17 A3008 RMK AO2 T02220166 SLP196
Loading
Personal Weather Stations






























Interactive Weather Map New forecast layout! Learn more

10-Day Weather Forecast

Advertisements
Track Severe Weather on mobile